Viernes, 18 de Abril del 2014

portal contactenos mapa del sitio buscar Revisar Correo Corporativo

Reporte METAR Consolidado

|| Reporte TAF Consolidado ||

Informe METAR emitido cada hora.

METAR

ESTACIÓN

AEROPUERTO

HORA UTC

DESCRIPCIÓN

SLGM

Guayaramerín

10-49S|65-20W

23:00

SLGM 182300Z 36003KT 9999 FEW017 FEW020CB 29/25 Q1009 A2979 HR81 CB/NE/SW=

SLRI

Riberalta

11-00S|66-04W

23:00

SLRI 182300Z 00000KT 9999 FEW015 FEW020CB BKN200 27/23 Q1008 A2977 HR82 CB E/W=

SLCO

Cobija

11-02S|68-47W

22:00

SLCO 182200Z 30005KT 9999 FEW020 BKN200 30/25 Q1007 A2976 980.3 HR75=

SLJO

San Joaquin

13-03S|64-39W

22:00

SLJO 182200Z 00000KT 9999 NSC 32/25 Q1006 A2973 HR66 CI RWY OPR C212=

SLRA

San Ramón

13-15S|64-36W

22:00

SLRA 182200Z 32004KT 9999 FEW017 SCT200 31/25 Q1008 A2977 HR68 RWY NML=

SLMG

San Magdalena

13-15S|64-03W

23:00

SLMG 182300Z 00000KT 9999 FEW017 FEW023CB BKN200 28/24 Q1008 A2979 HR77 CB NE RWY NML=

SLBU

Baures

13-39S|63-42W

22:00

SLBU 182200Z 35004KT 9999 FEW017 BKN200 31/26 Q1007 A2976 HR72 RWY NML=

SLSA

Santa Ana de Yacuma

13-45S|65-26W

23:00

SLSA 182300Z 36005KT 9999 FEW020 30/25 Q1006 A2973 HR73=

SLSR

Santa Rosa

14-04S|66-47W

22:00

SLSR 182200Z 00000KT 9999 FEW020 31/23 Q1002 A2960 HR63 RWY NML=

SLRY

Reyes

14-18S|67-21W

22:00

SLRY 182200Z 34004KT 9999 NSC 31/24 Q1007 A2975 HR68 RWY OPR 1 000M=

SLRQ

Rurrenabaque

14-25S|67-29W

22:00

SLRQ 182200Z 36004KT 9999 FEW020 30/26 Q1006 A2972 HR74=

SLAP

Apolo

14-44S|68-24W

-

SLAP WO ATTN=

SLTR

Trinidad

14-49S|64-54W

23:00

SLTR 182300Z 00000KT 9999 NSC 29/25 Q1007 A2974 988.7 HR78 NOSIG=

SLSB

San Borja

14-51S|66-44W

23:00

SLSB 182300Z 00000KT 9999 NSC 28/25 Q1006 A2971 HR81 RWY NML=

SLSM

San Ignacio de Moxos

14-57S|65-38W

22:00

SLSM 182200Z 00000KT 9999 NSC 31/24 Q1006 A2973 HR66 RWY OPR C212=

SLAS

Ascención de Guarayos

15-55S|63-09W

23:00

SLAS 182300Z 00000KT 9999 SCT020 27/24 Q1008 A2997 HR82 RWY NML =

SLCP

Concepción

16-08S|62-01W

22:00

SLCP 182200Z 30005KT 9999 FEW020 29/24 Q1011 A2985 HR79 RWY NML =

SLLP

Internaciónal El Alto

16-08S|68-10W

01:00

SLLP 190100Z 12007KT 9999 FEW013 FEW017CB BKN200 06/02 Q1039 A3068 628.8 CB/LT/NW AC HR79 NOSIG=

SLJV

San Javier

16-16S|62-28W

22:00

SLJV 182200Z 00000KT 9999 FEW020 27/23 Q1008 A2977 HR78 RWY NML =

SLTI

San Matías

16-20S|58-24W

22:00

SLTI 182200Z 00000KT 9999 SCT017 27/25 Q1014 A2994 HR89 RWY NML =

SLSI

San Ignacio de Velasco

16-23S|60-57W

23:00

SLSI 182300Z 00000KT 9999 NSC 28/24 Q1009 A2980 HR68 RWY NML=

SLCB

Cochabamba

17-25S|66-10W

01:00

SLCB 190100Z 12006KT 9999 FEW027 FEW030CB BKN200 19/09 Q1023 A3021 749.8 HR51 CB LT DIST W FU NOSIG=

SLCN

Charaña

17-35S|69-25W

-

SLCN WO ATTN=

SLVR

Internaciónal Viru Viru

17-38S|63-08W

01:00

SLVR 190100Z 00000KT 8000 FEW017 SCT200 25/22 Q1010 A2983 HR84 FU NOSIG=

SLET

El Trompillo

17-48S|63-10W

23:00

SLET 182300Z 33008KT 9999 FEW020 27/22 Q1007 A2975 HR78 NOSIG=

SLJE

San José de Chiquitos

17-49S|60-44W

22:00

SLJE 182200Z 00000KT 9999 FEW017 31/23 Q1010 A2983 HR63 RWY NML =

SLOR

Oruro

17-57S|67-04W

23:00

SLOR 182300Z 34008KT 8000 VCTSSH FEW017 FEW020CB SCT070 BKN200 13/05 Q1032 A3049 654.2 CB/TS/SH/SE/S/SW HR56=

SLRB

Roboré

18-19S|59-45W

23:00

SLRB 182300Z 00000KT 9999 NSC 29/24 Q1011 A2985 HR73 RWY NML=

SLVG

Valle Grande

18-28S|64-05W

21:00

SLVG 182100Z 36010KT 9999 BKN027 19/14 Q1021 A3015 HR62 RWY NML =

SLPS

Puerto Suárez

18-58S|57-49W

23:00

SLPS 182300Z 00000KT 9999 NSC 26/23 Q1009 A2980 HR83=

SLSU

Sucre

19-00S|65-17W

23:00

SLSU 182300Z 02006KT 9999 FEW020 FEW033CB BKN200 15/10 Q1026 A3030 HR72 CB/SW=

SLPO

Potosí

19-32S|65-43W

21:00

SLPO 182100Z 06008KT 9999 -TSRA SCT020 FEW023CB BKN200 10/03 Q1034 A3053 HR69 CB/TS/NE/E=

SLAG

Monteagudo

19-49S|63-58W

21:00

SLAG 182100Z 00000KT 2000 -DZ BKN008 OVC070 19/18 Q1016 A3000 HR93 RWY CLSD=

SLCA

Camiri

20-00S|63-31W

23:00

SLCA 182300Z 00000KT 2000 -DZ OVC005 19/19 Q1014 A2994 HR96 RWY HUM OPR=

SLUY

Uyuni

20-27S|62-52W

19:00

SLUY 181900Z 35015KT 9999 FEW025 SCT200 13/M08 Q1030 A3043 655.7 HR24=

SLVM

Villamontes

21-15S|63-24W

21:00

SLVM 182100Z 00000KT 9999 BKN017 OVC070 23/20 Q1010 A2983 HR84 PCPN/SW/W/NW=

SLTJ

Tarija

21-33S|64-42W

-

SLTJ 190000Z 00000KT 9999 BKN023 OVC070 16/14 Q1017 A3003 HR86=

SLYA

Yacuiba

21-57S|63-39W

23:00

SLYA 182300Z 00000KT 9999 SCT015 OVC070 20/18 Q1011 A2986 HR90=

SLBJ

Bermejo

22-46S|64-18W

21:00

SLBJ 182100Z 00000KT 9999 FEW015 OVC070 22/20 Q1010 A2983 HR89=